createdAt,value
2019-03-21T00:02:15.868Z,5.53
2019-03-21T00:04:46.837Z,5.47
2019-03-21T00:07:16.684Z,5.70
2019-03-21T00:10:29.831Z,5.10
2019-03-21T00:12:59.523Z,5.40
2019-03-21T00:15:33.511Z,5.87
2019-03-21T00:18:06.340Z,5.80
2019-03-21T00:20:36.064Z,5.67
2019-03-21T00:23:06.021Z,5.30
2019-03-21T00:25:35.785Z,6.50
2019-03-21T00:28:05.616Z,4.50
2019-03-21T00:30:35.363Z,5.37
2019-03-21T00:33:05.212Z,5.30
2019-03-21T00:35:34.955Z,4.93
2019-03-21T00:38:04.652Z,4.73
2019-03-21T00:40:36.854Z,4.93
2019-03-21T00:43:08.165Z,4.43
2019-03-21T00:45:37.941Z,5.07
2019-03-21T00:48:10.431Z,5.27
2019-03-21T00:50:40.144Z,5.03
2019-03-21T00:53:09.856Z,5.23
2019-03-21T00:55:40.405Z,6.00
2019-03-21T00:58:10.191Z,5.23
2019-03-21T01:00:45.416Z,5.03
2019-03-21T01:03:15.586Z,5.70
2019-03-21T01:05:45.593Z,4.70
2019-03-21T01:08:15.400Z,5.20
2019-03-21T01:10:45.076Z,5.63
2019-03-21T01:13:15.204Z,5.40
2019-03-21T01:15:44.930Z,5.30
2019-03-21T01:18:14.614Z,4.50
2019-03-21T01:20:44.539Z,4.73
2019-03-21T01:23:14.261Z,5.00
2019-03-21T01:25:47.038Z,5.20
2019-03-21T01:28:16.768Z,4.90
2019-03-21T01:30:46.441Z,4.40
2019-03-21T01:33:16.210Z,5.30
2019-03-21T01:35:45.902Z,6.20
2019-03-21T01:38:15.634Z,5.03
2019-03-21T01:40:46.091Z,5.10
2019-03-21T01:43:15.916Z,4.60
2019-03-21T01:45:45.591Z,5.30
2019-03-21T01:48:15.342Z,4.70
2019-03-21T01:50:45.039Z,4.50
2019-03-21T01:53:14.727Z,4.90
2019-03-21T01:55:44.405Z,5.00
2019-03-21T01:58:14.120Z,4.53
2019-03-21T02:00:43.926Z,4.53
2019-03-21T02:03:13.689Z,5.00
2019-03-21T02:05:43.491Z,4.40
2019-03-21T02:08:13.203Z,4.27
2019-03-21T02:10:42.938Z,4.03
2019-03-21T02:13:13.172Z,4.27
2019-03-21T02:15:42.901Z,3.93
2019-03-21T02:18:12.610Z,4.03
2019-03-21T02:20:42.323Z,4.60
2019-03-21T02:23:12.045Z,4.27
2019-03-21T02:25:42.999Z,4.17
2019-03-21T02:28:12.692Z,4.20
2019-03-21T02:30:42.524Z,4.40
2019-03-21T02:33:22.011Z,4.53
2019-03-21T02:35:51.767Z,4.93
2019-03-21T02:38:21.540Z,4.50
2019-03-21T02:40:51.481Z,4.00
2019-03-21T02:43:21.183Z,4.23
2019-03-21T02:45:50.911Z,4.23
2019-03-21T02:48:20.607Z,4.47
2019-03-21T02:50:50.293Z,4.63
2019-03-21T02:53:20.337Z,4.27
2019-03-21T02:55:50.088Z,4.43
2019-03-21T02:58:19.767Z,4.67
2019-03-21T03:00:49.488Z,3.70
2019-03-21T03:03:19.479Z,4.30
2019-03-21T03:05:49.274Z,4.13
2019-03-21T03:08:19.020Z,4.53
2019-03-21T03:10:50.445Z,4.33
2019-03-21T03:13:20.123Z,3.97
2019-03-21T03:15:49.848Z,3.77
2019-03-21T03:18:19.577Z,4.23
2019-03-21T03:20:49.293Z,4.07
2019-03-21T03:23:19.017Z,4.87
2019-03-21T03:25:50.878Z,4.27
2019-03-21T03:28:22.182Z,4.03
2019-03-21T03:30:52.363Z,4.50
2019-03-21T03:33:22.646Z,4.33
2019-03-21T03:35:52.434Z,4.33
2019-03-21T03:38:22.166Z,4.77
2019-03-21T03:40:54.691Z,4.23
2019-03-21T03:43:24.475Z,4.27
2019-03-21T03:45:54.159Z,3.90
2019-03-21T03:48:23.865Z,4.00
2019-03-21T03:50:53.577Z,4.33
2019-03-21T03:53:23.535Z,4.20
2019-03-21T03:55:53.334Z,5.00
2019-03-21T03:58:23.671Z,4.60
2019-03-21T04:00:53.388Z,5.10
2019-03-21T04:03:23.097Z,4.67
2019-03-21T04:05:52.754Z,4.20
2019-03-21T04:08:22.471Z,3.90
2019-03-21T04:10:52.185Z,4.10
2019-03-21T04:13:21.875Z,3.57
2019-03-21T04:15:53.781Z,4.70
2019-03-21T04:18:23.195Z,4.40
2019-03-21T04:20:53.868Z,4.60
2019-03-21T04:23:23.669Z,4.43
2019-03-21T04:25:59.427Z,4.67
2019-03-21T04:28:30.748Z,4.50
2019-03-21T04:31:00.453Z,4.30
2019-03-21T04:33:50.722Z,4.00
2019-03-21T04:36:20.979Z,4.40
2019-03-21T04:38:50.766Z,5.30
2019-03-21T04:41:20.450Z,4.80
2019-03-21T04:43:50.324Z,4.37
2019-03-21T04:46:20.105Z,4.77
2019-03-21T04:48:49.775Z,7.07
2019-03-21T04:51:19.757Z,5.40
2019-03-21T04:53:49.519Z,5.13
2019-03-21T04:56:19.322Z,5.47
2019-03-21T04:58:49.131Z,5.67
2019-03-21T05:01:18.948Z,6.43
2019-03-21T05:03:48.648Z,6.53
2019-03-21T05:06:18.378Z,6.20
2019-03-21T05:08:48.076Z,5.30
2019-03-21T05:11:17.960Z,5.63
2019-03-21T05:13:47.641Z,6.70
2019-03-21T05:16:17.347Z,7.50
2019-03-21T05:18:47.748Z,6.53
2019-03-21T05:21:18.004Z,5.77
2019-03-21T05:23:47.787Z,5.40
2019-03-21T05:26:17.532Z,5.93
2019-03-21T05:28:47.224Z,5.97
2019-03-21T05:31:20.394Z,5.17
2019-03-21T05:33:50.070Z,5.47
2019-03-21T05:36:19.793Z,5.63
2019-03-21T05:38:49.567Z,5.80
2019-03-21T05:41:19.349Z,5.03
2019-03-21T05:43:58.813Z,5.60
2019-03-21T05:46:28.747Z,5.57
2019-03-21T05:48:58.613Z,7.43
2019-03-21T05:51:28.783Z,8.00
2019-03-21T05:53:58.855Z,7.27
2019-03-21T05:56:28.618Z,10.70
2019-03-21T05:58:58.294Z,11.30
2019-03-21T06:01:33.362Z,15.90
2019-03-21T06:04:03.137Z,6.50
2019-03-21T06:06:38.190Z,6.73
2019-03-21T06:09:09.853Z,7.20
2019-03-21T06:11:40.801Z,7.93
2019-03-21T06:14:10.650Z,7.63
2019-03-21T06:16:40.385Z,7.30
2019-03-21T06:19:14.015Z,7.20
2019-03-21T06:22:24.310Z,7.20
2019-03-21T06:25:25.250Z,6.07
2019-03-21T06:27:54.959Z,6.40
2019-03-21T06:30:24.696Z,5.80
2019-03-21T06:32:54.425Z,7.00
2019-03-21T06:35:24.358Z,6.43
2019-03-21T06:37:54.483Z,6.83
2019-03-21T06:40:24.761Z,7.97
2019-03-21T06:42:54.534Z,8.17
2019-03-21T06:45:24.238Z,7.90
2019-03-21T06:47:54.071Z,9.40
2019-03-21T06:50:23.964Z,8.13
2019-03-21T06:52:53.726Z,8.30
2019-03-21T06:55:23.706Z,8.93
2019-03-21T06:57:53.419Z,10.10
2019-03-21T07:00:25.024Z,9.27
2019-03-21T07:02:54.970Z,12.53
2019-03-21T07:05:26.753Z,15.70
2019-03-21T07:07:56.371Z,15.50
2019-03-21T07:12:55.281Z,12.63
2019-03-21T07:15:25.026Z,11.33
2019-03-21T07:17:54.933Z,13.30
2019-03-21T07:20:24.857Z,14.93
2019-03-21T07:22:54.558Z,23.63
2019-03-21T07:25:24.505Z,17.93
2019-03-21T07:27:54.247Z,13.77
2019-03-21T07:30:24.299Z,15.20
2019-03-21T07:32:54.278Z,18.33
2019-03-21T07:35:24.176Z,16.30
2019-03-21T07:37:54.088Z,11.17
2019-03-21T07:40:23.786Z,12.33
2019-03-21T07:42:53.660Z,13.20
2019-03-21T07:45:23.387Z,11.63
2019-03-21T07:47:53.112Z,10.43
2019-03-21T07:50:23.155Z,13.03
2019-03-21T07:52:52.902Z,15.27
2019-03-21T07:55:22.616Z,11.20
2019-03-21T07:57:52.410Z,11.73
2019-03-21T08:00:22.104Z,12.30
2019-03-21T08:02:51.809Z,11.77
2019-03-21T08:05:21.515Z,11.27
2019-03-21T08:07:51.216Z,13.83
2019-03-21T08:10:21.094Z,14.40
2019-03-21T08:12:50.778Z,9.87
2019-03-21T08:15:20.470Z,10.93
2019-03-21T08:17:50.364Z,13.50
2019-03-21T08:20:20.224Z,10.87
2019-03-21T08:22:49.944Z,11.23
2019-03-21T08:25:19.851Z,8.90
2019-03-21T08:27:51.722Z,8.87
2019-03-21T08:30:35.029Z,10.77
2019-03-21T08:33:05.314Z,9.63
2019-03-21T08:35:35.032Z,9.77
2019-03-21T08:38:04.713Z,10.20
2019-03-21T08:40:34.540Z,8.90
2019-03-21T08:43:04.344Z,6.57
2019-03-21T08:45:34.096Z,6.63
2019-03-21T08:48:04.622Z,4.80
2019-03-21T08:50:34.326Z,3.90
2019-03-21T08:53:04.167Z,4.43
2019-03-21T08:55:33.881Z,4.30
2019-03-21T08:58:03.594Z,3.67
2019-03-21T09:00:34.407Z,4.90
2019-03-21T09:03:04.693Z,4.00
2019-03-21T09:05:34.762Z,3.77
2019-03-21T09:08:04.714Z,4.03
2019-03-21T09:10:34.669Z,3.50
2019-03-21T09:13:04.562Z,4.40
2019-03-21T09:15:34.338Z,3.40
2019-03-21T09:18:04.099Z,3.20
2019-03-21T09:20:33.813Z,3.92
2019-03-21T09:23:03.595Z,3.90
2019-03-21T09:25:33.292Z,3.58
2019-03-21T09:28:03.230Z,2.83
2019-03-21T09:30:32.921Z,3.22
2019-03-21T09:33:02.618Z,3.72
2019-03-21T09:35:32.340Z,3.47
2019-03-21T09:38:02.276Z,2.97
2019-03-21T09:40:31.995Z,3.37
2019-03-21T09:43:03.216Z,3.00
2019-03-21T09:45:32.998Z,2.53
2019-03-21T09:48:03.369Z,2.80
2019-03-21T09:50:33.066Z,2.70
2019-03-21T09:53:02.802Z,2.70
2019-03-21T09:55:32.605Z,2.70
2019-03-21T09:58:02.303Z,2.20
2019-03-21T10:00:33.958Z,3.00
2019-03-21T10:03:04.024Z,2.80
2019-03-21T10:05:33.731Z,2.83
2019-03-21T10:08:03.695Z,3.07
2019-03-21T10:10:33.618Z,3.27
2019-03-21T10:13:03.689Z,2.47
2019-03-21T10:15:33.467Z,2.73
2019-03-21T10:18:03.158Z,3.63
2019-03-21T10:20:32.857Z,2.50
2019-03-21T10:23:02.582Z,3.73
2019-03-21T10:25:32.404Z,2.63
2019-03-21T10:28:02.101Z,3.03
2019-03-21T10:30:45.069Z,2.33
2019-03-21T10:33:15.390Z,2.60
2019-03-21T10:35:45.191Z,2.85
2019-03-21T10:38:15.156Z,2.75
2019-03-21T10:40:44.846Z,2.83
2019-03-21T10:43:14.535Z,3.05
2019-03-21T10:45:44.225Z,3.00
2019-03-21T10:48:13.920Z,3.30
2019-03-21T10:50:43.634Z,3.50
2019-03-21T10:53:13.603Z,3.08
2019-03-21T10:55:43.322Z,3.30
2019-03-21T10:58:13.061Z,3.05
2019-03-21T11:00:42.795Z,3.35
2019-03-21T11:03:12.614Z,4.03
2019-03-21T11:05:42.533Z,3.03
2019-03-21T11:08:12.255Z,3.90
2019-03-21T11:10:42.105Z,3.23
2019-03-21T11:13:11.863Z,3.37
2019-03-21T11:15:41.574Z,3.10
2019-03-21T11:18:11.277Z,3.50
2019-03-21T11:20:41.586Z,3.27
2019-03-21T11:23:11.327Z,3.35
2019-03-21T11:25:41.148Z,3.47
2019-03-21T11:28:11.118Z,3.27
2019-03-21T11:30:46.853Z,3.15
2019-03-21T11:33:16.574Z,4.08
2019-03-21T11:35:46.323Z,4.17
2019-03-21T11:38:16.164Z,3.80
2019-03-21T11:40:48.264Z,4.22
2019-03-21T11:43:18.882Z,3.60
2019-03-21T11:45:48.580Z,3.98
2019-03-21T11:48:18.326Z,3.75
2019-03-21T11:50:48.068Z,3.92
2019-03-21T11:53:17.909Z,3.98
2019-03-21T11:55:47.674Z,3.90
2019-03-21T11:58:17.910Z,3.55
2019-03-21T12:00:47.875Z,4.22
2019-03-21T12:03:17.715Z,4.40
2019-03-21T12:05:47.648Z,3.95
2019-03-21T12:08:17.381Z,3.70
2019-03-21T12:10:47.096Z,4.15
2019-03-21T12:13:16.866Z,4.00
2019-03-21T12:15:46.977Z,3.15
2019-03-21T12:18:16.712Z,3.80
2019-03-21T12:20:46.405Z,3.20
2019-03-21T12:23:16.219Z,3.60
2019-03-21T12:25:46.008Z,3.50
2019-03-21T12:28:16.302Z,3.77
2019-03-21T12:30:46.104Z,3.42
2019-03-21T12:33:15.852Z,4.58
2019-03-21T12:35:45.785Z,3.55
2019-03-21T12:38:15.635Z,3.40
2019-03-21T12:40:46.618Z,3.77
2019-03-21T12:43:16.504Z,3.90
2019-03-21T12:45:46.238Z,3.52
2019-03-21T12:48:16.144Z,3.52
2019-03-21T12:50:45.918Z,4.00
2019-03-21T12:53:15.896Z,3.62
2019-03-21T12:55:45.695Z,3.58
2019-03-21T12:58:15.443Z,3.27
2019-03-21T13:00:45.524Z,3.10
2019-03-21T13:03:15.317Z,3.40
2019-03-21T13:05:45.058Z,3.75
2019-03-21T13:08:14.806Z,2.75
2019-03-21T13:10:44.717Z,3.55
2019-03-21T13:13:15.010Z,2.85
2019-03-21T13:15:44.762Z,2.70
2019-03-21T13:18:14.614Z,3.33
2019-03-21T13:20:44.563Z,3.58
2019-03-21T13:23:14.360Z,2.98
2019-03-21T13:25:44.133Z,3.40
2019-03-21T13:28:13.961Z,3.00
2019-03-21T13:30:43.715Z,2.85
2019-03-21T13:33:13.468Z,3.17
2019-03-21T13:35:43.223Z,3.45
2019-03-21T13:38:12.905Z,3.60
2019-03-21T13:40:42.692Z,3.75
2019-03-21T13:43:12.442Z,4.42
2019-03-21T13:45:42.198Z,4.53
2019-03-21T13:48:11.967Z,4.55
2019-03-21T13:50:41.810Z,4.15
2019-03-21T13:53:18.660Z,4.40
2019-03-21T13:55:43.114Z,4.90
2019-03-21T13:58:12.926Z,4.50
2019-03-21T14:00:42.630Z,4.50
2019-03-21T14:03:12.410Z,4.78
2019-03-21T14:05:42.254Z,4.42
2019-03-21T14:08:12.084Z,4.45
2019-03-21T14:10:42.076Z,4.90
2019-03-21T14:13:11.904Z,4.50
2019-03-21T14:15:41.646Z,4.15
2019-03-21T14:18:11.519Z,3.83
2019-03-21T14:20:41.262Z,4.42
2019-03-21T14:23:16.844Z,4.12
2019-03-21T14:25:42.592Z,4.58
2019-03-21T14:28:12.526Z,4.33
2019-03-21T14:30:42.387Z,4.40
2019-03-21T14:33:12.132Z,4.83
2019-03-21T14:35:41.865Z,4.83
2019-03-21T14:38:13.370Z,4.13
2019-03-21T14:40:43.034Z,4.73
2019-03-21T14:43:12.905Z,5.00
2019-03-21T14:45:42.644Z,4.50
2019-03-21T14:48:12.472Z,3.87
2019-03-21T14:50:42.432Z,4.67
2019-03-21T14:53:12.490Z,4.17
2019-03-21T14:55:47.404Z,4.60
2019-03-21T14:58:13.892Z,4.93
2019-03-21T15:00:43.669Z,4.57
2019-03-21T15:03:13.476Z,4.53
2019-03-21T15:05:43.189Z,4.33
2019-03-21T15:08:13.005Z,4.00
2019-03-21T15:10:42.718Z,4.87
2019-03-21T15:13:12.506Z,4.37
2019-03-21T15:15:42.226Z,4.67
2019-03-21T15:18:12.028Z,4.30
2019-03-21T15:20:41.899Z,4.63
2019-03-21T15:23:11.653Z,3.90
2019-03-21T15:25:41.764Z,5.10
2019-03-21T15:28:11.748Z,4.60
2019-03-21T15:30:41.483Z,4.37
2019-03-21T15:33:11.272Z,4.30
2019-03-21T15:35:41.094Z,4.53
2019-03-21T15:38:10.850Z,5.47
2019-03-21T15:40:40.680Z,4.53
2019-03-21T15:43:10.706Z,5.60
2019-03-21T15:45:40.469Z,4.50
2019-03-21T15:48:10.274Z,5.77
2019-03-21T15:50:40.053Z,5.53
2019-03-21T15:53:10.674Z,5.10
2019-03-21T15:55:41.052Z,5.17
2019-03-21T15:58:10.823Z,5.20
2019-03-21T16:00:41.669Z,5.50
2019-03-21T16:03:11.581Z,4.73
2019-03-21T16:05:41.894Z,4.73
2019-03-21T16:08:11.638Z,5.20
2019-03-21T16:10:41.400Z,5.50
2019-03-21T16:13:11.231Z,4.80
2019-03-21T16:15:41.019Z,5.40
2019-03-21T16:18:10.751Z,5.03
2019-03-21T16:20:40.897Z,4.70
2019-03-21T16:23:10.589Z,4.87
2019-03-21T16:25:40.347Z,4.40
2019-03-21T16:28:10.246Z,3.93
2019-03-21T16:30:40.006Z,4.00
2019-03-21T16:33:09.846Z,4.23
2019-03-21T16:35:39.589Z,3.80
2019-03-21T16:38:09.414Z,5.57
2019-03-21T16:40:39.153Z,4.27
2019-03-21T16:43:08.987Z,4.07
2019-03-21T16:45:38.703Z,3.93
2019-03-21T16:48:09.375Z,3.93
2019-03-21T16:50:39.262Z,4.43
2019-03-21T16:53:09.025Z,3.50
2019-03-21T16:55:38.879Z,4.20
2019-03-21T16:58:08.638Z,3.70
2019-03-21T17:00:38.412Z,4.33
2019-03-21T17:03:08.173Z,4.20
2019-03-21T17:05:38.161Z,4.13
2019-03-21T17:08:11.487Z,4.63
2019-03-21T17:10:41.204Z,4.50
2019-03-21T17:13:11.652Z,4.87
2019-03-21T17:15:41.520Z,4.43
2019-03-21T17:18:11.515Z,4.93
2019-03-21T17:20:41.287Z,4.73
2019-03-21T17:23:11.014Z,4.70
2019-03-21T17:25:40.842Z,4.50
2019-03-21T17:28:10.610Z,4.43
2019-03-21T17:30:40.581Z,4.73
2019-03-21T17:33:10.354Z,4.20
2019-03-21T17:35:40.509Z,5.90
2019-03-21T17:38:10.289Z,5.37
2019-03-21T17:40:40.052Z,5.43
2019-03-21T17:43:09.860Z,7.43
2019-03-21T17:45:39.579Z,6.70
2019-03-21T17:48:09.347Z,8.10
2019-03-21T17:50:39.094Z,7.77
2019-03-21T17:53:08.898Z,9.30
2019-03-21T17:55:38.785Z,14.10
2019-03-21T17:58:08.742Z,10.40
2019-03-21T18:00:38.721Z,13.90
2019-03-21T18:03:08.473Z,13.17
2019-03-21T18:05:39.233Z,14.67
2019-03-21T18:08:09.316Z,8.57
2019-03-21T18:10:39.273Z,7.63
2019-03-21T18:13:09.122Z,8.93
2019-03-21T18:15:39.036Z,8.80
2019-03-21T18:18:08.980Z,8.60
2019-03-21T18:20:38.937Z,9.67
2019-03-21T18:23:09.118Z,8.63
2019-03-21T18:25:38.908Z,12.27
2019-03-21T18:28:09.220Z,14.57
2019-03-21T18:30:38.973Z,12.30
2019-03-21T18:33:09.120Z,11.27
2019-03-21T18:35:39.205Z,10.27
2019-03-21T18:38:09.104Z,11.00
2019-03-21T18:40:38.826Z,9.00
2019-03-21T18:43:08.599Z,10.70
2019-03-21T18:45:38.364Z,10.17
2019-03-21T18:48:08.142Z,8.90
2019-03-21T18:50:38.061Z,8.57
2019-03-21T18:53:07.813Z,7.97
2019-03-21T18:55:37.969Z,7.80
2019-03-21T18:58:08.135Z,7.33
2019-03-21T19:00:38.487Z,8.63
2019-03-21T19:03:08.266Z,9.93
2019-03-21T19:05:38.065Z,8.63
2019-03-21T19:08:07.788Z,8.63
2019-03-21T19:10:37.550Z,7.17
2019-03-21T19:13:07.391Z,8.00
2019-03-21T19:15:52.167Z,7.87
2019-03-21T19:18:21.899Z,8.70
2019-03-21T19:20:57.951Z,8.90
2019-03-21T19:23:27.655Z,9.57
2019-03-21T19:25:58.986Z,8.63
2019-03-21T19:28:29.685Z,9.03
2019-03-21T19:30:59.419Z,10.80
2019-03-21T19:33:29.092Z,12.77
2019-03-21T19:35:59.125Z,10.47
2019-03-21T19:38:29.033Z,11.27
2019-03-21T19:40:59.129Z,10.53
2019-03-21T19:43:28.863Z,11.03
2019-03-21T19:45:59.752Z,10.67
2019-03-21T19:48:32.754Z,10.23
2019-03-21T19:51:02.621Z,14.60
2019-03-21T19:53:32.661Z,12.97
2019-03-21T19:56:08.396Z,9.90
2019-03-21T19:58:33.838Z,10.57
2019-03-21T20:01:03.561Z,11.27
2019-03-21T20:03:33.247Z,12.23
2019-03-21T20:06:03.022Z,12.83
2019-03-21T20:08:32.847Z,12.60
2019-03-21T20:11:02.566Z,12.37
2019-03-21T20:13:32.400Z,10.67
2019-03-21T20:16:02.059Z,10.63
2019-03-21T20:18:31.953Z,9.43
2019-03-21T20:21:01.688Z,8.70
2019-03-21T20:23:31.679Z,8.03
2019-03-21T20:26:01.486Z,9.67
2019-03-21T20:28:31.226Z,9.50
2019-03-21T20:31:01.255Z,8.40
2019-03-21T20:33:31.065Z,8.80
2019-03-21T20:36:00.748Z,9.80
2019-03-21T20:38:30.661Z,8.87
2019-03-21T20:41:00.457Z,9.63
2019-03-21T20:43:30.183Z,8.17
2019-03-21T20:46:00.007Z,10.00
2019-03-21T20:48:31.240Z,9.03
2019-03-21T20:51:01.397Z,8.00
2019-03-21T20:53:31.204Z,6.57
2019-03-21T20:56:01.233Z,7.00
2019-03-21T20:58:32.319Z,5.53
2019-03-21T21:01:02.042Z,6.37
2019-03-21T21:03:31.723Z,5.80
2019-03-21T21:06:01.506Z,7.07
2019-03-21T21:08:32.393Z,5.83
2019-03-21T21:11:02.052Z,6.07
2019-03-21T21:13:31.751Z,6.50
2019-03-21T21:16:01.535Z,5.83
2019-03-21T21:18:31.218Z,6.23
2019-03-21T21:21:00.992Z,6.90
2019-03-21T21:23:30.652Z,6.60
2019-03-21T21:26:05.498Z,6.27
2019-03-21T21:28:31.726Z,8.53
2019-03-21T21:31:01.473Z,9.53
2019-03-21T21:33:31.131Z,10.83
2019-03-21T21:36:00.845Z,10.97
2019-03-21T21:38:30.707Z,10.50
2019-03-21T21:41:00.396Z,11.53
2019-03-21T21:43:30.099Z,59.60
2019-03-21T21:45:59.769Z,10.77
2019-03-21T21:48:29.489Z,9.20
2019-03-21T21:50:59.181Z,10.23
2019-03-21T21:53:28.878Z,9.10
2019-03-21T21:55:58.716Z,10.10
2019-03-21T21:58:28.449Z,10.90
2019-03-21T22:00:58.216Z,11.23
2019-03-21T22:03:27.950Z,11.50
2019-03-21T22:05:57.623Z,10.10
2019-03-21T22:08:27.397Z,9.07
2019-03-21T22:10:57.036Z,9.13
2019-03-21T22:13:26.707Z,9.73
2019-03-21T22:15:56.438Z,9.00
2019-03-21T22:18:26.111Z,9.17
2019-03-21T22:20:55.800Z,8.57
2019-03-21T22:23:25.520Z,8.53
2019-03-21T22:25:55.163Z,8.97
2019-03-21T22:28:24.852Z,8.67
2019-03-21T22:30:54.579Z,7.87
2019-03-21T22:33:24.452Z,7.90
2019-03-21T22:35:54.154Z,9.10
2019-03-21T22:38:23.850Z,8.10
2019-03-21T22:40:53.653Z,8.13
2019-03-21T22:43:23.472Z,8.77
2019-03-21T22:45:53.148Z,8.20
2019-03-21T22:48:22.833Z,7.60
2019-03-21T22:50:52.516Z,8.33
2019-03-21T22:53:22.204Z,8.20
2019-03-21T22:55:51.870Z,7.80
2019-03-21T22:58:31.448Z,8.50
2019-03-21T23:00:54.547Z,8.30
2019-03-21T23:03:24.242Z,7.43
2019-03-21T23:05:53.895Z,8.47
2019-03-21T23:08:23.654Z,7.10
2019-03-21T23:10:53.425Z,7.73
2019-03-21T23:13:23.157Z,8.17
2019-03-21T23:15:52.979Z,8.07
2019-03-21T23:18:22.915Z,7.30
2019-03-21T23:20:52.585Z,7.53
2019-03-21T23:23:22.383Z,8.50
2019-03-21T23:25:52.274Z,7.17
2019-03-21T23:28:21.962Z,7.23
2019-03-21T23:30:51.643Z,6.83
2019-03-21T23:33:21.743Z,7.67
2019-03-21T23:35:51.430Z,6.53
2019-03-21T23:38:21.118Z,7.93
2019-03-21T23:40:50.917Z,7.63
2019-03-21T23:43:20.590Z,7.50
2019-03-21T23:45:50.525Z,7.30
2019-03-21T23:48:20.167Z,7.47
2019-03-21T23:50:50.039Z,7.83
2019-03-21T23:53:19.712Z,8.00
2019-03-21T23:55:49.379Z,7.27
2019-03-21T23:58:19.040Z,6.77
